Polk Army Air Field Fort Polk US
ICAO: KPOE
IATA: POE
Category: Medium
Scheduled Services: No

Elevation: 330 ft
TransAlt. 18000 ft.

Airport Communications:
APP/DEP:123.7
ATIS:134.85
FLT FOLLOWING:123.7
GND:121.8
RANGE CON:40.95
MEDEVAC OPS:42.5
POE OPS:36.05
PMSV METRO:135
TWR:41.5

KPOE Zoom In..

Runways:

(A) RW 16 length 4109 ft width 125 ft
---- / hdg 158

(B) RW 34 length 4109 ft width 125 ft
---- / hdg 338

Location; KPOE
Day. 25 / Time. 09.58 Zulu
* Altimeter: 30.04
* Temperature: 13° c. 55.4°f.
* Wind from: 000° Speed 00 kn.
Dewpoint: 12° c.
Visibility: 10 Statute Miles.
Clouds: Clear (automated report).

KPOE 250958Z AUTO 00000KT 10SM CLR 13/12 A3004 RMK AO2 LTG DSNT NW SLP173 T01300122


Wind - Calm.

  YouTube Music Video
 
jpsmedia.com for Web Design  worldairports.se 2018   terms of use